createdAt,value
2018-12-10T00:00:49.782Z,80.10
2018-12-10T00:03:23.298Z,80.70
2018-12-10T00:05:53.464Z,80.20
2018-12-10T00:08:21.472Z,80.70
2018-12-10T00:10:49.755Z,79.90
2018-12-10T00:13:17.716Z,80.30
2018-12-10T00:15:45.825Z,80.30
2018-12-10T00:18:13.730Z,79.50
2018-12-10T00:20:41.723Z,79.00
2018-12-10T00:23:09.627Z,79.00
2018-12-10T00:25:37.554Z,79.10
2018-12-10T00:28:05.613Z,80.20
2018-12-10T00:30:33.686Z,80.90
2018-12-10T00:33:01.683Z,81.20
2018-12-10T00:35:32.801Z,80.10
2018-12-10T00:38:00.743Z,79.10
2018-12-10T00:40:28.986Z,79.50
2018-12-10T00:42:57.004Z,78.10
2018-12-10T00:45:24.992Z,79.50
2018-12-10T00:47:52.982Z,81.20
2018-12-10T00:50:21.288Z,82.90
2018-12-10T00:52:49.250Z,83.20
2018-12-10T00:55:17.161Z,83.80
2018-12-10T00:57:45.118Z,84.70
2018-12-10T01:00:13.226Z,85.50
2018-12-10T01:02:41.167Z,86.10
2018-12-10T01:05:09.275Z,85.70
2018-12-10T01:07:37.484Z,86.00
2018-12-10T01:10:05.560Z,86.20
2018-12-10T01:12:33.683Z,86.60
2018-12-10T01:15:01.860Z,86.90
2018-12-10T01:17:29.805Z,87.50
2018-12-10T01:19:57.875Z,88.30
2018-12-10T01:22:25.922Z,88.10
2018-12-10T01:24:53.808Z,88.90
2018-12-10T01:27:21.850Z,89.00
2018-12-10T01:29:49.958Z,89.10
2018-12-10T01:32:17.979Z,89.60
2018-12-10T01:34:46.028Z,89.70
2018-12-10T01:37:14.058Z,89.20
2018-12-10T01:39:42.124Z,89.80
2018-12-10T01:42:10.150Z,89.30
2018-12-10T01:44:38.402Z,89.60
2018-12-10T01:47:06.558Z,89.40
2018-12-10T01:49:34.807Z,89.30
2018-12-10T01:52:02.779Z,88.80
2018-12-10T01:54:30.863Z,89.20
2018-12-10T01:56:58.888Z,89.00
2018-12-10T01:59:27.024Z,88.70
2018-12-10T02:01:55.227Z,89.50
2018-12-10T02:04:23.266Z,90.00
2018-12-10T02:06:51.825Z,90.10
2018-12-10T02:09:19.744Z,90.10
2018-12-10T02:11:47.766Z,90.10
2018-12-10T02:14:15.731Z,90.10
2018-12-10T02:16:43.660Z,89.50
2018-12-10T02:19:11.911Z,88.80
2018-12-10T02:21:40.128Z,87.80
2018-12-10T02:24:08.140Z,87.10
2018-12-10T02:26:36.192Z,87.30
2018-12-10T02:29:09.732Z,82.90
2018-12-10T02:31:37.795Z,78.90
2018-12-10T02:34:06.287Z,77.70
2018-12-10T02:36:34.299Z,79.10
2018-12-10T02:39:03.807Z,78.60
2018-12-10T02:41:31.902Z,78.30
2018-12-10T02:43:59.864Z,79.20
2018-12-10T02:46:28.057Z,78.80
2018-12-10T02:48:56.062Z,78.10
2018-12-10T02:51:24.039Z,79.20
2018-12-10T02:53:51.992Z,79.80
2018-12-10T02:56:20.061Z,79.90
2018-12-10T02:58:48.114Z,80.60
2018-12-10T03:01:16.096Z,79.10
2018-12-10T03:03:44.128Z,79.20
2018-12-10T03:06:12.297Z,79.20
2018-12-10T03:08:40.545Z,78.40
2018-12-10T03:11:09.487Z,78.10
2018-12-10T03:13:37.543Z,77.60
2018-12-10T03:16:05.511Z,77.40
2018-12-10T03:18:34.025Z,78.00
2018-12-10T03:21:02.063Z,78.50
2018-12-10T03:23:30.113Z,78.00
2018-12-10T03:25:58.215Z,78.40
2018-12-10T03:28:26.304Z,77.50
2018-12-10T03:30:54.323Z,78.00
2018-12-10T03:33:22.401Z,77.60
2018-12-10T03:35:50.373Z,77.80
2018-12-10T03:38:18.367Z,78.90
2018-12-10T03:40:46.389Z,78.10
2018-12-10T03:43:14.413Z,77.70
2018-12-10T03:45:42.552Z,77.10
2018-12-10T03:48:10.658Z,77.40
2018-12-10T03:50:38.835Z,77.60
2018-12-10T03:53:07.051Z,76.50
2018-12-10T03:55:35.226Z,76.30
2018-12-10T03:58:03.251Z,76.20
2018-12-10T04:00:31.290Z,76.30
2018-12-10T04:02:59.306Z,75.90
2018-12-10T04:05:27.438Z,75.00
2018-12-10T04:07:55.397Z,74.90
2018-12-10T04:10:24.642Z,73.90
2018-12-10T04:12:52.542Z,72.60
2018-12-10T04:15:20.470Z,71.60
2018-12-10T04:17:48.501Z,72.90
2018-12-10T04:20:19.087Z,73.30
2018-12-10T04:22:47.801Z,72.80
2018-12-10T04:25:17.323Z,71.30
2018-12-10T04:27:45.354Z,69.70
2018-12-10T04:30:13.515Z,68.00
2018-12-10T04:32:41.462Z,67.70
2018-12-10T04:35:09.607Z,68.80
2018-12-10T04:37:37.549Z,69.10
2018-12-10T04:40:05.680Z,67.80
2018-12-10T04:42:33.598Z,68.50
2018-12-10T04:45:01.540Z,67.70
2018-12-10T04:47:29.487Z,68.10
2018-12-10T04:49:57.490Z,68.60
2018-12-10T04:52:25.455Z,69.10
2018-12-10T04:54:53.362Z,69.70
2018-12-10T04:57:21.300Z,70.40
2018-12-10T04:59:52.778Z,70.70
2018-12-10T05:02:19.446Z,71.00
2018-12-10T05:04:47.391Z,69.80
2018-12-10T05:07:16.391Z,69.30
2018-12-10T05:09:44.454Z,69.30
2018-12-10T05:12:12.433Z,68.80
2018-12-10T05:14:40.662Z,68.90
2018-12-10T05:17:08.672Z,68.40
2018-12-10T05:19:36.782Z,68.40
2018-12-10T05:22:04.950Z,68.60
2018-12-10T05:24:32.936Z,67.60
2018-12-10T05:27:01.340Z,67.00
2018-12-10T05:29:29.323Z,66.10
2018-12-10T05:31:57.274Z,65.80
2018-12-10T05:34:25.257Z,66.90
2018-12-10T05:36:53.409Z,66.00
2018-12-10T05:39:21.372Z,66.80
2018-12-10T05:41:49.352Z,67.30
2018-12-10T05:44:17.319Z,67.80
2018-12-10T05:46:45.309Z,68.00
2018-12-10T05:49:13.363Z,69.10
2018-12-10T05:51:41.370Z,69.10
2018-12-10T05:54:09.441Z,69.90
2018-12-10T05:56:37.554Z,70.10
2018-12-10T05:59:05.446Z,69.60
2018-12-10T06:01:33.460Z,69.80
2018-12-10T06:04:01.509Z,71.00
2018-12-10T06:06:29.392Z,70.50
2018-12-10T06:08:57.446Z,70.50
2018-12-10T06:11:25.330Z,70.80
2018-12-10T06:13:53.289Z,70.20
2018-12-10T06:16:21.232Z,69.10
2018-12-10T06:18:49.195Z,69.50
2018-12-10T06:21:17.121Z,70.30
2018-12-10T06:23:45.021Z,70.50
2018-12-10T06:26:12.896Z,70.50
2018-12-10T06:28:41.012Z,70.50
2018-12-10T06:31:08.905Z,70.60
2018-12-10T06:33:36.897Z,71.00
2018-12-10T06:36:04.978Z,73.40
2018-12-10T06:38:32.887Z,74.20
2018-12-10T06:41:00.948Z,75.90
2018-12-10T06:43:28.879Z,78.20
2018-12-10T06:45:56.925Z,79.50
2018-12-10T06:48:24.784Z,80.10
2018-12-10T06:50:52.844Z,81.10
2018-12-10T06:53:20.817Z,81.80
2018-12-10T06:55:49.187Z,83.20
2018-12-10T06:58:17.204Z,83.10
2018-12-10T07:00:45.188Z,83.10
2018-12-10T07:03:13.036Z,83.80
2018-12-10T07:05:41.314Z,84.20
2018-12-10T07:08:10.540Z,84.60
2018-12-10T07:10:38.658Z,84.80
2018-12-10T07:13:06.641Z,85.60
2018-12-10T07:15:34.551Z,85.10
2018-12-10T07:18:02.487Z,85.40
2018-12-10T07:20:30.458Z,85.40
2018-12-10T07:22:58.421Z,86.10
2018-12-10T07:25:26.355Z,86.60
2018-12-10T07:27:54.388Z,86.40
2018-12-10T07:30:22.259Z,86.20
2018-12-10T07:32:50.150Z,85.50
2018-12-10T07:35:18.664Z,86.00
2018-12-10T07:37:46.619Z,84.30
2018-12-10T07:40:14.629Z,84.30
2018-12-10T07:42:42.765Z,84.10
2018-12-10T07:45:10.890Z,85.30
2018-12-10T07:47:39.236Z,85.80
2018-12-10T07:50:08.708Z,85.10
2018-12-10T07:52:36.673Z,84.70
2018-12-10T07:55:04.638Z,84.60
2018-12-10T07:57:32.512Z,84.90
2018-12-10T08:00:00.428Z,85.40
2018-12-10T08:05:22.689Z,85.10
2018-12-10T08:07:50.681Z,85.40
2018-12-10T08:10:18.923Z,85.30
2018-12-10T08:12:46.811Z,85.50
2018-12-10T08:15:14.851Z,85.50
2018-12-10T08:17:42.842Z,86.20
2018-12-10T08:20:10.879Z,86.10
2018-12-10T08:22:38.784Z,86.30
2018-12-10T08:25:06.703Z,86.70
2018-12-10T08:27:34.639Z,87.10
2018-12-10T08:30:02.778Z,87.50
2018-12-10T08:32:30.673Z,87.40
2018-12-10T08:34:58.569Z,87.50
2018-12-10T08:37:26.412Z,87.50
2018-12-10T08:39:54.272Z,87.80
2018-12-10T08:42:22.155Z,87.90
2018-12-10T08:44:50.047Z,87.90
2018-12-10T08:47:18.088Z,87.90
2018-12-10T08:49:45.969Z,87.40
2018-12-10T08:52:14.187Z,87.50
2018-12-10T08:54:42.356Z,86.60
2018-12-10T08:57:10.335Z,86.30
2018-12-10T08:59:38.502Z,85.10
2018-12-10T09:02:06.375Z,85.30
2018-12-10T09:04:34.208Z,84.40
2018-12-10T09:07:02.156Z,83.50
2018-12-10T09:09:30.033Z,83.60
2018-12-10T09:11:57.867Z,84.00
2018-12-10T09:14:25.726Z,84.20
2018-12-10T09:16:53.680Z,83.80
2018-12-10T09:19:21.692Z,83.30
2018-12-10T09:21:49.674Z,82.80
2018-12-10T09:24:20.671Z,83.20
2018-12-10T09:26:48.774Z,83.70
2018-12-10T09:29:16.794Z,83.70
2018-12-10T09:31:44.795Z,83.20
2018-12-10T09:34:12.934Z,82.60
2018-12-10T09:36:40.958Z,82.90
2018-12-10T09:39:08.852Z,83.50
2018-12-10T09:41:36.713Z,83.10
2018-12-10T09:44:04.651Z,83.60
2018-12-10T09:46:32.545Z,83.30
2018-12-10T09:49:00.496Z,83.70
2018-12-10T09:51:28.468Z,82.80
2018-12-10T09:53:56.418Z,83.00
2018-12-10T09:56:24.316Z,83.30
2018-12-10T09:58:52.216Z,82.80
2018-12-10T10:01:20.121Z,83.40
2018-12-10T10:03:48.105Z,83.30
2018-12-10T10:06:16.195Z,83.50
2018-12-10T10:08:44.133Z,83.00
2018-12-10T10:11:12.360Z,83.20
2018-12-10T10:13:40.357Z,82.80
2018-12-10T10:16:08.264Z,83.50
2018-12-10T10:18:36.197Z,84.20
2018-12-10T10:21:04.210Z,84.70
2018-12-10T10:23:32.184Z,85.00
2018-12-10T10:26:00.101Z,85.60
2018-12-10T10:28:27.980Z,84.20
2018-12-10T10:30:55.903Z,84.20
2018-12-10T10:33:32.162Z,83.00
2018-12-10T10:35:53.827Z,82.40
2018-12-10T10:38:21.914Z,79.40
2018-12-10T10:40:49.907Z,78.50
2018-12-10T10:43:18.308Z,76.60
2018-12-10T10:45:46.385Z,76.70
2018-12-10T10:48:14.430Z,77.70
2018-12-10T10:50:42.663Z,77.80
2018-12-10T10:53:10.645Z,78.90
2018-12-10T10:55:39.466Z,81.10
2018-12-10T10:58:07.359Z,81.90
2018-12-10T11:00:41.062Z,82.90
2018-12-10T11:03:39.775Z,83.90
2018-12-10T11:06:08.103Z,82.50
2018-12-10T11:08:36.056Z,82.40
2018-12-10T11:11:03.964Z,82.40
2018-12-10T11:13:31.868Z,81.10
2018-12-10T11:15:59.847Z,80.00
2018-12-10T11:18:27.724Z,81.00
2018-12-10T11:20:55.909Z,80.70
2018-12-10T11:23:23.841Z,81.40
2018-12-10T11:25:52.604Z,79.70
2018-12-10T11:28:20.584Z,80.20
2018-12-10T11:30:48.670Z,80.30
2018-12-10T11:33:16.856Z,79.80
2018-12-10T11:35:44.823Z,79.60
2018-12-10T11:38:13.031Z,78.00
2018-12-10T11:40:40.954Z,77.50
2018-12-10T11:43:08.850Z,77.30
2018-12-10T11:45:37.690Z,77.60
2018-12-10T11:48:05.608Z,77.90
2018-12-10T11:50:33.926Z,77.00
2018-12-10T11:53:01.860Z,78.90
2018-12-10T11:55:29.774Z,81.00
2018-12-10T11:57:57.728Z,80.20
2018-12-10T12:00:25.831Z,78.40
2018-12-10T12:02:53.849Z,78.40
2018-12-10T12:05:21.921Z,78.40
2018-12-10T12:07:50.109Z,79.40
2018-12-10T12:10:18.207Z,80.50
2018-12-10T12:12:46.287Z,81.10
2018-12-10T12:15:14.426Z,82.10
2018-12-10T12:17:42.463Z,82.70
2018-12-10T12:20:10.744Z,83.00
2018-12-10T12:22:38.611Z,83.50
2018-12-10T12:25:06.949Z,82.80
2018-12-10T12:27:34.908Z,82.70
2018-12-10T12:30:02.875Z,81.10
2018-12-10T12:32:30.814Z,81.90
2018-12-10T12:34:58.651Z,82.10
2018-12-10T12:37:26.595Z,81.80
2018-12-10T12:39:54.517Z,81.50
2018-12-10T12:42:22.432Z,80.70
2018-12-10T12:44:50.690Z,80.10
2018-12-10T12:47:18.744Z,78.80
2018-12-10T12:49:46.792Z,79.30
2018-12-10T12:52:14.748Z,78.30
2018-12-10T12:54:42.681Z,77.30
2018-12-10T12:57:10.540Z,77.20
2018-12-10T12:59:38.445Z,79.00
2018-12-10T13:02:06.323Z,79.60
2018-12-10T13:04:34.571Z,77.90
2018-12-10T13:07:02.858Z,79.60
2018-12-10T13:09:30.843Z,80.00
2018-12-10T13:11:58.792Z,81.60
2018-12-10T13:14:27.494Z,79.90
2018-12-10T13:16:55.505Z,80.20
2018-12-10T13:19:23.493Z,81.30
2018-12-10T13:21:51.456Z,81.60
2018-12-10T13:24:19.457Z,81.50
2018-12-10T13:26:47.674Z,81.30
2018-12-10T13:29:15.779Z,82.20
2018-12-10T13:31:43.895Z,82.80
2018-12-10T13:34:11.815Z,82.90
2018-12-10T13:36:39.692Z,82.60
2018-12-10T13:39:07.957Z,82.00
2018-12-10T13:41:35.768Z,82.40
2018-12-10T13:44:04.007Z,82.70
2018-12-10T13:46:31.938Z,82.50
2018-12-10T13:48:59.861Z,82.60
2018-12-10T13:51:27.874Z,82.30
2018-12-10T13:53:55.765Z,82.50
2018-12-10T13:56:23.738Z,82.20
2018-12-10T13:58:51.911Z,82.20
2018-12-10T14:01:19.862Z,82.20
2018-12-10T14:03:48.099Z,82.90
2018-12-10T14:06:16.111Z,83.30
2018-12-10T14:08:44.228Z,82.90
2018-12-10T14:11:13.063Z,83.10
2018-12-10T14:13:40.978Z,82.50
2018-12-10T14:16:10.845Z,82.20
2018-12-10T14:18:38.777Z,82.20
2018-12-10T14:21:06.715Z,82.50
2018-12-10T14:23:35.058Z,82.60
2018-12-10T14:26:03.100Z,82.40
2018-12-10T14:28:31.033Z,83.00
2018-12-10T14:30:59.449Z,83.50
2018-12-10T14:33:27.442Z,83.70
2018-12-10T14:35:55.371Z,83.80
2018-12-10T14:38:23.304Z,84.20
2018-12-10T14:40:52.463Z,84.30
2018-12-10T14:43:20.346Z,84.80
2018-12-10T14:45:48.210Z,84.80
2018-12-10T14:48:16.280Z,85.20
2018-12-10T14:50:44.328Z,85.70
2018-12-10T14:53:12.217Z,86.00
2018-12-10T14:55:40.101Z,86.30
2018-12-10T14:58:08.000Z,87.00
2018-12-10T15:00:35.887Z,87.50
2018-12-10T15:03:04.122Z,87.60
2018-12-10T15:05:32.091Z,87.30
2018-12-10T15:07:59.866Z,87.40
2018-12-10T15:10:27.680Z,87.50
2018-12-10T15:12:55.548Z,87.60
2018-12-10T15:15:23.371Z,87.30
2018-12-10T15:17:52.028Z,86.70
2018-12-10T15:20:19.919Z,87.00
2018-12-10T15:22:47.910Z,87.60
2018-12-10T15:25:15.827Z,87.70
2018-12-10T15:27:43.814Z,87.00
2018-12-10T15:30:12.190Z,86.40
2018-12-10T15:32:40.040Z,86.40
2018-12-10T15:35:08.461Z,85.90
2018-12-10T15:37:36.208Z,86.00
2018-12-10T15:40:04.931Z,86.00
2018-12-10T15:42:32.807Z,86.70
2018-12-10T15:45:00.598Z,87.00
2018-12-10T15:47:28.396Z,87.90
2018-12-10T15:49:57.308Z,89.00
2018-12-10T15:52:25.131Z,90.00
2018-12-10T15:54:52.959Z,90.00
2018-12-10T15:57:20.814Z,90.70
2018-12-10T15:59:48.634Z,90.50
2018-12-10T16:02:16.733Z,90.80
2018-12-10T16:04:44.585Z,91.00
2018-12-10T16:07:12.449Z,90.90
2018-12-10T16:09:40.860Z,91.10
2018-12-10T16:12:09.579Z,91.30
2018-12-10T16:14:37.399Z,91.30
2018-12-10T16:17:05.249Z,91.30
2018-12-10T16:19:33.074Z,91.20
2018-12-10T16:22:00.898Z,91.50
2018-12-10T16:24:28.730Z,91.70
2018-12-10T16:26:56.566Z,91.70
2018-12-10T16:29:24.343Z,91.70
2018-12-10T16:31:52.344Z,91.10
2018-12-10T16:34:20.276Z,90.60
2018-12-10T16:36:48.136Z,90.50
2018-12-10T16:39:16.296Z,87.50
2018-12-10T16:41:44.142Z,87.00
2018-12-10T16:44:12.008Z,86.50
2018-12-10T16:46:40.167Z,86.70
2018-12-10T16:49:08.409Z,86.00
2018-12-10T16:51:36.394Z,86.30
2018-12-10T16:54:04.439Z,86.90
2018-12-10T16:56:32.863Z,87.40
2018-12-10T16:59:01.052Z,88.40
2018-12-10T17:01:29.521Z,89.10
2018-12-10T17:03:58.264Z,87.50
2018-12-10T17:06:26.556Z,86.40
2018-12-10T17:08:54.847Z,86.20
2018-12-10T17:11:23.644Z,87.00
2018-12-10T17:13:52.433Z,88.40
2018-12-10T17:16:21.421Z,88.80
2018-12-10T17:18:50.142Z,88.50
2018-12-10T17:21:18.667Z,89.40
2018-12-10T17:23:46.829Z,90.00
2018-12-10T17:26:14.925Z,90.50
2018-12-10T17:28:43.136Z,90.90
2018-12-10T17:31:11.644Z,91.00
2018-12-10T17:33:39.977Z,91.20
2018-12-10T17:36:08.151Z,91.20
2018-12-10T17:38:36.920Z,91.30
2018-12-10T17:41:09.052Z,90.90
2018-12-10T17:43:37.394Z,90.60
2018-12-10T17:46:05.734Z,90.60
2018-12-10T17:48:34.036Z,90.50
2018-12-10T17:51:02.541Z,90.80
2018-12-10T17:53:30.888Z,90.80
2018-12-10T17:55:59.755Z,91.00
2018-12-10T17:58:27.972Z,91.10
2018-12-10T18:00:56.200Z,90.70
2018-12-10T18:03:29.559Z,90.70
2018-12-10T18:05:57.929Z,90.70
2018-12-10T18:08:27.030Z,90.90
2018-12-10T18:10:55.327Z,91.50
2018-12-10T18:13:23.682Z,91.80
2018-12-10T18:15:52.125Z,92.00
2018-12-10T18:18:20.394Z,91.80
2018-12-10T18:20:48.699Z,91.90
2018-12-10T18:23:17.776Z,92.00
2018-12-10T18:25:46.142Z,91.90
2018-12-10T18:28:14.895Z,91.10
2018-12-10T18:30:44.433Z,90.60
2018-12-10T18:33:14.612Z,89.80
2018-12-10T18:35:42.689Z,90.00
2018-12-10T18:38:10.727Z,90.50
2018-12-10T18:40:38.689Z,90.60
2018-12-10T18:43:06.957Z,90.90
2018-12-10T18:45:35.036Z,91.50
2018-12-10T18:48:03.211Z,91.90
2018-12-10T18:50:31.399Z,92.20
2018-12-10T18:52:59.662Z,90.80
2018-12-10T18:55:27.861Z,89.30
2018-12-10T18:57:56.335Z,88.30
2018-12-10T19:00:24.471Z,89.70
2018-12-10T19:02:52.640Z,90.10
2018-12-10T19:05:25.252Z,90.30
2018-12-10T19:07:53.397Z,90.40
2018-12-10T19:10:21.341Z,90.70
2018-12-10T19:12:49.783Z,90.70
2018-12-10T19:15:18.472Z,90.30
2018-12-10T19:17:46.769Z,90.30
2018-12-10T19:20:14.970Z,90.30
2018-12-10T19:22:44.001Z,90.40
2018-12-10T19:25:12.057Z,90.80
2018-12-10T19:27:40.525Z,91.10
2018-12-10T19:30:09.108Z,91.20
2018-12-10T19:32:37.144Z,91.10
2018-12-10T19:35:05.632Z,91.10
2018-12-10T19:37:33.825Z,91.30
2018-12-10T19:40:04.217Z,91.40
2018-12-10T19:42:32.748Z,91.30
2018-12-10T19:45:00.992Z,91.40
2018-12-10T19:47:29.378Z,91.20
2018-12-10T19:49:57.643Z,91.30
2018-12-10T19:52:26.028Z,91.20
2018-12-10T19:54:54.774Z,91.00
2018-12-10T19:57:23.211Z,90.50
2018-12-10T19:59:51.516Z,90.50
2018-12-10T20:02:20.524Z,90.10
2018-12-10T20:04:49.241Z,89.30
2018-12-10T20:07:17.785Z,89.30
2018-12-10T20:09:46.916Z,88.30
2018-12-10T20:12:15.392Z,88.80
2018-12-10T20:14:43.549Z,89.40
2018-12-10T20:17:11.862Z,88.80
2018-12-10T20:19:39.961Z,86.10
2018-12-10T20:22:08.096Z,86.10
2018-12-10T20:24:36.271Z,86.40
2018-12-10T20:27:04.412Z,85.40
2018-12-10T20:29:32.600Z,84.50
2018-12-10T20:32:00.825Z,84.60
2018-12-10T20:34:28.927Z,83.60
2018-12-10T20:36:56.810Z,83.50
2018-12-10T20:39:24.893Z,82.90
2018-12-10T20:41:52.962Z,81.40
2018-12-10T20:44:21.319Z,78.90
2018-12-10T20:46:54.547Z,78.30
2018-12-10T20:49:23.599Z,79.40
2018-12-10T20:51:52.130Z,78.40
2018-12-10T20:54:20.592Z,75.60
2018-12-10T20:56:49.955Z,74.10
2018-12-10T20:59:18.961Z,73.10
2018-12-10T21:01:47.499Z,73.40
2018-12-10T21:04:15.488Z,72.90
2018-12-10T21:06:43.611Z,73.00
2018-12-10T21:09:11.704Z,74.20
2018-12-10T21:11:39.981Z,73.90
2018-12-10T21:14:08.000Z,73.90
2018-12-10T21:16:36.142Z,74.70
2018-12-10T21:19:04.306Z,75.40
2018-12-10T21:21:32.744Z,73.60
2018-12-10T21:24:00.819Z,74.10
2018-12-10T21:26:28.956Z,74.90
2018-12-10T21:28:56.925Z,75.30
2018-12-10T21:31:24.912Z,75.90
2018-12-10T21:33:53.373Z,75.30
2018-12-10T21:36:21.602Z,75.00
2018-12-10T21:38:49.887Z,75.40
2018-12-10T21:41:18.246Z,74.40
2018-12-10T21:43:46.664Z,75.10
2018-12-10T21:46:14.626Z,74.30
2018-12-10T21:48:42.809Z,75.00
2018-12-10T21:51:10.844Z,75.10
2018-12-10T21:53:38.947Z,76.00
2018-12-10T21:56:06.900Z,76.10
2018-12-10T21:58:35.370Z,75.10
2018-12-10T22:01:03.634Z,75.80
2018-12-10T22:03:31.944Z,76.80
2018-12-10T22:05:59.914Z,77.80
2018-12-10T22:08:27.867Z,77.30
2018-12-10T22:10:56.668Z,76.20
2018-12-10T22:13:24.808Z,76.30
2018-12-10T22:15:54.344Z,77.50
2018-12-10T22:18:23.645Z,78.40
2018-12-10T22:20:52.110Z,79.70
2018-12-10T22:23:21.293Z,81.50
2018-12-10T22:25:50.117Z,82.90
2018-12-10T22:28:19.315Z,84.00
2018-12-10T22:30:47.901Z,86.10
2018-12-10T22:33:16.257Z,87.10
2018-12-10T22:35:44.121Z,87.80
2018-12-10T22:38:12.166Z,87.90
2018-12-10T22:40:40.363Z,88.50
2018-12-10T22:43:08.542Z,88.40
2018-12-10T22:45:37.371Z,89.80
2018-12-10T22:48:06.283Z,90.10
2018-12-10T22:50:34.453Z,90.00
2018-12-10T22:53:02.754Z,90.40
2018-12-10T22:55:31.518Z,90.40
2018-12-10T22:58:00.059Z,90.60
2018-12-10T23:00:35.323Z,90.40
2018-12-10T23:03:05.292Z,90.90
2018-12-10T23:05:34.082Z,91.10
2018-12-10T23:08:02.118Z,91.10
2018-12-10T23:10:32.346Z,91.20
2018-12-10T23:13:00.654Z,91.10
2018-12-10T23:15:29.532Z,91.50
2018-12-10T23:17:58.182Z,91.80
2018-12-10T23:20:26.809Z,91.50
2018-12-10T23:22:55.069Z,91.50
2018-12-10T23:25:23.450Z,91.60
2018-12-10T23:27:52.826Z,91.60
2018-12-10T23:30:21.138Z,91.50
2018-12-10T23:32:54.330Z,91.60
2018-12-10T23:35:23.601Z,91.40
2018-12-10T23:37:51.878Z,91.30
2018-12-10T23:40:21.263Z,91.50
2018-12-10T23:42:55.271Z,91.60
2018-12-10T23:45:23.857Z,91.80
2018-12-10T23:47:52.495Z,91.60
2018-12-10T23:50:20.630Z,90.80
2018-12-10T23:52:49.516Z,90.90
2018-12-10T23:55:18.425Z,90.90
2018-12-10T23:57:46.515Z,90.80
